METAR Data
IDs: Format: Raw Decoded Include TAF

Data at: 0902 UTC 26 Jan 2020

KMWC 260855Z AUTO 28008KT 10SM OVC009 00/M01 A2987 RMK AO2
KMWC 260835Z AUTO 29009G14KT 10SM OVC009 00/M01 A2987 RMK AO2
KMWC 260815Z AUTO 28010KT 7SM OVC009 00/M01 A2987 RMK AO2
KMWC 260755Z AUTO 27007KT 10SM OVC009 00/M01 A2987 RMK AO2
KMWC 260735Z AUTO 27007KT 10SM OVC011 00/M01 A2986 RMK AO2
KMWC 260715Z AUTO 28007KT 7SM -SN OVC011 00/M01 A2986 RMK AO2
KMWC 260655Z AUTO 28007KT 7SM -SN OVC009 00/M01 A2986 RMK AO2
KMWC 260635Z AUTO 27006KT 10SM OVC009 01/M01 A2986 RMK AO2
KMWC 260615Z AUTO 27006KT 10SM OVC007 01/M01 A2986 RMK AO2
KMWC 260555Z AUTO 27007KT 10SM OVC007 01/M01 A2986 RMK AO2
KMWC 260535Z AUTO 26007KT 10SM OVC007 01/M01 A2986 RMK AO2
KMWC 260515Z AUTO 27008KT 10SM OVC007 01/M01 A2986 RMK AO2
KMWC 260455Z AUTO 28006KT 10SM OVC007 01/M01 A2985 RMK AO2
KMWC 260435Z AUTO 26006KT 10SM OVC007 01/M01 A2985 RMK AO2
KMWC 260415Z AUTO 27005KT 10SM OVC009 01/M01 A2985 RMK AO2
KMWC 260355Z AUTO 26006KT 10SM OVC009 01/M01 A2985 RMK AO2
KMWC 260335Z AUTO 27005KT 10SM OVC009 01/M01 A2985 RMK AO2
KMWC 260315Z AUTO 27004KT 10SM OVC011 01/M01 A2985 RMK AO2
KMWC 260255Z AUTO 27005KT 10SM OVC011 01/M01 A2985 RMK AO2
KMWC 260245Z 26004KT 10SM OVC011 01/M02 A2984
KMWC 260145Z 28005KT 10SM OVC009 01/M02 A2984
KMWC 260045Z 29005KT 10SM OVC009 01/M02 A2983
KMWC 252345Z 29006KT 10SM OVC011 01/M02 A2983
KMWC 252245Z 30007KT 10SM OVC011 01/M02 A2981
KMWC 252145Z 29007KT 10SM OVC011 01/M02 A2980
KMWC 252045Z 13008KT 10SM OVC013 01/M02 A2979
KMWC 251945Z 28007KT 10SM OVC011 01/M02 A2978
KMWC 251845Z COR 30008KT 10SM OVC013 01/M02 A2978
KMWC 251745Z 29004KT 5SM -SN OVC009 01/M01 A2980
KMWC 251645Z 29004KT 2 1/2SM -SN OVC007 01/M01 A2980
KMWC 251545Z 28005KT 1 1/2SM -SN OVC007 00/M01 A2979
KMWC 251445Z 28003KT 1 1/2SM -SN OVC005 00/M01 A2978
KMWC 251345Z 28003KT 1SM -SN OVC005 00/M01 A2978
KMWC 251315Z 27003KT 1 1/2SM -SN BKN005 OVC018 00/M01 A2977
KMWC 251255Z AUTO 27003KT 1 1/2SM -SN OVC016 00/M01 A2977 RMK AO2
KMWC 251235Z AUTO 27003KT 4SM -SN OVC012 00/M01 A2976 RMK AO2
KMWC 251215Z AUTO 26004KT 5SM BR OVC010 00/M01 A2976 RMK AO2
KMWC 251155Z AUTO 27003KT 4SM BR BKN012 OVC017 00/M01 A2975 RMK AO2
KMWC 251135Z AUTO 27004KT 4SM BR BKN013 OVC028 00/M01 A2975 RMK AO2
KMWC 251115Z AUTO 28003KT 4SM BR SCT005 OVC026 00/M01 A2975 RMK AO2
KMWC 251055Z AUTO 28003KT 4SM BR OVC026 00/M01 A2975 RMK AO2
KMWC 251035Z AUTO 27003KT 3SM -RA SCT011 OVC026 00/M01 A2974 RMK AO2
KMWC 251015Z AUTO 28003KT 4SM -SN OVC009 00/M01 A2975 RMK AO2
KMWC 250955Z AUTO 27003KT 4SM BR OVC007 00/M01 A2975 RMK AO2
KMWC 250935Z AUTO 25003KT 3SM BR OVC005 00/M01 A2975 RMK AO2
KMWC 250915Z AUTO 00000KT 3SM BR OVC005 00/M01 A2975 RMK AO2
KMWC 250855Z AUTO 00000KT 2 1/2SM BR OVC005 00/M01 A2976 RMK AO2
KMWC 250835Z AUTO 00000KT 3SM BR OVC005 00/M01 A2976 RMK AO2
KMWC 250815Z AUTO 00000KT 2 1/2SM BR OVC005 00/M01 A2976 RMK AO2
KMWC 250755Z AUTO 00000KT 2 1/2SM BR OVC005 00/M01 A2976 RMK AO2
KMWC 250735Z AUTO 00000KT 3SM BR OVC005 00/M01 A2976 RMK AO2
KMWC 250715Z AUTO 00000KT 2 1/2SM BR OVC005 00/M01 A2976 RMK AO2
KMWC 250655Z AUTO 00000KT 2SM BR OVC005 00/M01 A2976 RMK AO2
KMWC 250635Z AUTO 00000KT 2SM -SN OVC003 00/M01 A2976 RMK AO2
KMWC 250615Z AUTO 00000KT 1 3/4SM -RA OVC003 00/M01 A2976 RMK AO2
KMWC 250555Z AUTO 00000KT 1 1/4SM -SN OVC003 00/M01 A2976 RMK AO2
KMWC 250535Z AUTO 00000KT 1 1/2SM -SN OVC003 00/M01 A2976 RMK AO2
KMWC 250515Z AUTO 00000KT 1SM -SN OVC003 00/M01 A2977 RMK AO2
KMWC 250455Z AUTO 34003KT 1 1/4SM -SN OVC003 00/M01 A2977 RMK AO2 P0001
KMWC 250435Z AUTO 35003KT 1 1/2SM UP OVC003 00/M01 A2978 RMK AO2 P0001
KMWC 250415Z AUTO 34003KT 1 3/4SM -RA OVC003 00/M01 A2978 RMK AO2
KMWC 250355Z AUTO 34003KT 1 1/4SM -RA OVC003 00/M01 A2978 RMK AO2
KMWC 250335Z AUTO 35004KT 1 1/2SM -SN OVC003 00/M01 A2979 RMK AO2
KMWC 250315Z AUTO 35003KT 1 1/4SM -SN OVC003 00/M01 A2979 RMK AO2
KMWC 250255Z AUTO 00000KT 1 1/4SM -SN OVC003 00/M01 A2980 RMK AO2
KMWC 250245Z 00000KT 1 1/2SM -SN OVC003 00/M01 A2981
KMWC 250145Z 00000KT 1 1/4SM -SN OVC003 00/M01 A2980
KMWC 250045Z 00000KT 1 3/4SM -SN OVC003 00/M01 A2981
KMWC 242345Z 02003KT 1 1/4SM -SN OVC003 00/M01 A2982
KMWC 242245Z 05004KT 1SM -SN OVC003 00/M01 A2982
KMWC 242145Z 06004KT 3SM -DZ OVC003 02/01 A2981